Weather History for Devils Lake, ND

Change the Weather History Date:

Thursday, April 4, 2013

  Actual Average Record
Temperature  
Mean Temperature 24 °F -  
Max Temperature 30 °F 45 °F 71 °F (1991)
Min Temperature 17 °F 23 °F 0 °F (2002)
Degree Days  
Heating Degree Days 42    
Moisture  
Dew Point 20 °F    
Average Humidity 83    
Maximum Humidity 100    
Minimum Humidity 69    
Precipitation  
Precipitation 0.00 in - - ()
Sea Level Pressure  
Sea Level Pressure 30.19 in    
Wind  
Wind Speed 11 mph (North)    
Max Wind Speed 16 mph    
Max Gust Speed 20 mph    
Visibility 10 miles    
Events      
Averages and records for this station are not official NWS values.
T = Trace of Precipitation, MM = Missing Value Source: NWS Daily Summary

Daily Weather History Graph

Daily Weather History Graph

Search for Another Location

Airport:

Trip Planner

Search our weather history database for the weather conditions in past years. The results will help you decide how hot, cold, wet, or windy it might be!

Date:

Astronomy

Apr. 04, 2013 Rise Set
Actual Time 7:07 AM CDT 8:10 PM CDT
Civil Twilight 6:35 AM CDT 8:42 PM CDT
Nautical Twilight 5:57 AM CDT 9:20 PM CDT
Astronomical Twilight 5:16 AM CDT 10:01 PM CDT
Moon 4:00 AM CDT (4/4) 2:06 PM CDT (4/4)
Length of Visible Light 14h 07m
Length of Day
13h 03m
Waning Crescent, 33% of the Moon is Illuminated
Apr 4
Waning Crescent
Apr 10
New
Apr 18
First Quarter
Apr 25
Full
May 2
Last Quarter

Hourly Weather History & Observations

Time (CDT) Temp. Windchill Dew Point Humidity Pressure Visibility Wind Dir Wind Speed Gust Speed Precip Events Conditions
12:15 AM 30.2 °F 18.9 °F 26.6 °F 86% 30.04 in 10.0 mi NW 16.1 mph - N/A   Clear
12:35 AM 30.2 °F 19.3 °F 26.6 °F 86% 30.05 in 10.0 mi NW 15.0 mph - N/A   Clear
12:55 AM 28.4 °F 18.0 °F 26.6 °F 93% 30.05 in 10.0 mi WNW 12.7 mph - N/A   Clear
1:15 AM 28.4 °F 19.1 °F 26.6 °F 93% 30.06 in 10.0 mi WNW 10.4 mph - N/A   Clear
1:35 AM 28.4 °F 19.1 °F 26.6 °F 93% 30.06 in 10.0 mi WNW 10.4 mph - N/A   Clear
1:55 AM 26.6 °F 16.8 °F 24.8 °F 93% 30.06 in 10.0 mi WNW 10.4 mph - N/A   Clear
2:15 AM 26.6 °F 16.8 °F 24.8 °F 93% 30.07 in 10.0 mi West 10.4 mph - N/A   Clear
2:35 AM 26.6 °F 16.2 °F 24.8 °F 93% 30.07 in 10.0 mi WNW 11.5 mph - N/A   Clear
2:55 AM 24.8 °F 14.6 °F 23.0 °F 93% 30.07 in 10.0 mi WNW 10.4 mph - N/A   Clear
3:15 AM 24.8 °F 14.6 °F 23.0 °F 93% 30.07 in 10.0 mi NW 10.4 mph - N/A   Clear
3:35 AM 26.6 °F 16.2 °F 21.2 °F 80% 30.07 in 10.0 mi NW 11.5 mph - N/A   Clear
3:55 AM 26.6 °F 15.2 °F 21.2 °F 80% 30.08 in 10.0 mi NW 13.8 mph - N/A   Clear
4:15 AM 24.8 °F 14.0 °F 21.2 °F 86% 30.09 in 10.0 mi NW 11.5 mph - N/A   Clear
4:35 AM 23.0 °F 11.7 °F 19.4 °F 86% 30.09 in 10.0 mi NW 11.5 mph - N/A   Clear
4:55 AM 23.0 °F 10.6 °F 19.4 °F 86% 30.10 in 10.0 mi NW 13.8 mph - N/A   Clear
5:15 AM 23.0 °F 11.1 °F 19.4 °F 86% 30.11 in 10.0 mi NW 12.7 mph - N/A   Clear
5:35 AM 23.0 °F 11.7 °F 19.4 °F 86% 30.11 in 10.0 mi WNW 11.5 mph - N/A   Clear
5:55 AM 21.2 °F 10.9 °F 17.6 °F 86% 30.13 in 10.0 mi WNW 9.2 mph - N/A   Clear
6:15 AM 21.2 °F 10.1 °F 19.4 °F 93% 30.14 in 10.0 mi NW 10.4 mph - N/A   Clear
6:35 AM 21.2 °F 9.5 °F 17.6 °F 86% 30.15 in 10.0 mi WNW 11.5 mph - N/A   Clear
6:55 AM 21.2 °F 9.5 °F 17.6 °F 86% 30.16 in 10.0 mi NW 11.5 mph - N/A   Clear
7:15 AM 19.4 °F 7.9 °F 17.6 °F 93% 30.16 in 10.0 mi NW 10.4 mph - N/A   Clear
7:35 AM 19.4 °F 7.9 °F 17.6 °F 93% 30.17 in 10.0 mi NW 10.4 mph - N/A   Clear
7:55 AM 19.4 °F 7.9 °F 17.6 °F 93% 30.18 in 10.0 mi NW 10.4 mph - N/A   Clear
8:15 AM 19.4 °F 8.6 °F 17.6 °F 93% 30.18 in 10.0 mi NW 9.2 mph - N/A   Clear
8:35 AM 21.2 °F 10.1 °F 17.6 °F 86% 30.19 in 10.0 mi NW 10.4 mph - N/A   Clear
8:55 AM 21.2 °F 10.1 °F 17.6 °F 86% 30.20 in 10.0 mi NW 10.4 mph - N/A   Clear
9:15 AM 21.2 °F 10.1 °F 19.4 °F 93% 30.21 in 10.0 mi NW 10.4 mph - N/A   Clear
9:35 AM 23.0 °F 13.1 °F 19.4 °F 86% 30.21 in 10.0 mi NNW 9.2 mph - N/A   Clear
9:55 AM 24.8 °F 14.6 °F 21.2 °F 86% 30.21 in 10.0 mi NNW 10.4 mph - N/A   Clear
10:15 AM 24.8 °F 14.0 °F 19.4 °F 80% 30.21 in 10.0 mi North 11.5 mph - N/A   Clear
10:35 AM 24.8 °F 14.0 °F 21.2 °F 86% 30.22 in 10.0 mi North 11.5 mph - N/A   Clear
10:55 AM 24.8 °F 13.4 °F 21.2 °F 86% 30.23 in 10.0 mi North 12.7 mph - N/A   Clear
11:35 AM 26.6 °F 16.8 °F 23.0 °F 86% 30.24 in 10.0 mi North 10.4 mph - N/A   Clear
11:55 AM 28.4 °F 19.1 °F 23.0 °F 80% 30.24 in 10.0 mi NNE 10.4 mph - N/A   Clear
12:15 PM 28.4 °F 18.5 °F 21.2 °F 74% 30.25 in 10.0 mi NNE 11.5 mph - N/A   Clear
12:35 PM 28.4 °F 18.0 °F 21.2 °F 74% 30.25 in 10.0 mi NNE 12.7 mph - N/A   Clear
12:55 PM 28.4 °F 19.1 °F 21.2 °F 74% 30.25 in 10.0 mi NNE 10.4 mph - N/A   Clear
1:15 PM 28.4 °F 17.5 °F 21.2 °F 74% 30.25 in 10.0 mi NNE 13.8 mph - N/A   Scattered Clouds
1:35 PM 28.4 °F 18.5 °F 21.2 °F 74% 30.25 in 10.0 mi North 11.5 mph 19.6 mph N/A   Partly Cloudy
1:55 PM 28.4 °F 18.0 °F 21.2 °F 74% 30.25 in 10.0 mi NNE 12.7 mph - N/A   Clear
2:15 PM 28.4 °F 18.0 °F 19.4 °F 69% 30.25 in 10.0 mi North 12.7 mph - N/A   Clear
2:35 PM 28.4 °F 18.0 °F 21.2 °F 74% 30.25 in 10.0 mi North 12.7 mph - N/A   Clear
2:55 PM 28.4 °F 18.0 °F 19.4 °F 69% 30.25 in 10.0 mi North 12.7 mph - N/A   Clear
3:15 PM 26.6 °F 16.2 °F 19.4 °F 74% 30.24 in 10.0 mi North 11.5 mph 16.1 mph N/A   Clear
3:35 PM 28.4 °F 19.7 °F 21.2 °F 74% 30.24 in 10.0 mi NNE 9.2 mph - N/A   Clear
3:55 PM 26.6 °F 18.2 °F 19.4 °F 74% 30.25 in 10.0 mi NNE 8.1 mph - N/A   Clear
4:15 PM 26.6 °F 17.5 °F 21.2 °F 80% 30.25 in 10.0 mi North 9.2 mph - N/A   Clear
4:35 PM 26.6 °F 19.1 °F 19.4 °F 74% 30.25 in 10.0 mi NNE 6.9 mph - N/A   Clear
4:55 PM 26.6 °F 19.1 °F 19.4 °F 74% 30.25 in 10.0 mi North 6.9 mph - N/A   Clear
5:15 PM 26.6 °F 21.2 °F 19.4 °F 74% 30.25 in 10.0 mi North 4.6 mph - N/A   Clear
5:35 PM 26.6 °F 18.2 °F 21.2 °F 80% 30.25 in 10.0 mi NNE 8.1 mph - N/A   Clear
5:55 PM 26.6 °F 19.1 °F 17.6 °F 69% 30.25 in 10.0 mi NNE 6.9 mph - N/A   Clear
6:15 PM 26.6 °F 18.2 °F 19.4 °F 74% 30.25 in 10.0 mi North 8.1 mph - N/A   Clear
6:35 PM 26.6 °F 17.5 °F 19.4 °F 74% 30.25 in 10.0 mi NNE 9.2 mph - N/A   Clear
6:55 PM 26.6 °F 18.2 °F 19.4 °F 74% 30.25 in 10.0 mi NNE 8.1 mph - N/A   Clear
7:15 PM 26.6 °F 17.5 °F 17.6 °F 69% 30.25 in 10.0 mi NNE 9.2 mph - N/A   Clear
7:35 PM 24.8 °F 16.9 °F 17.6 °F 74% 30.24 in 10.0 mi NNE 6.9 mph - N/A   Clear
7:55 PM 24.8 °F 16.1 °F 17.6 °F 74% 30.24 in 10.0 mi NE 8.1 mph - N/A   Clear
8:15 PM 24.8 °F 17.9 °F 17.6 °F 74% 30.24 in 10.0 mi NNE 5.8 mph - N/A   Clear
8:35 PM 24.8 °F 16.9 °F 17.6 °F 74% 30.24 in 10.0 mi NNE 6.9 mph - N/A   Clear
8:55 PM 21.2 °F 13.6 °F 17.6 °F 86% 30.24 in 10.0 mi NNE 5.8 mph - N/A   Clear
9:15 PM 21.2 °F 16.4 °F 17.6 °F 86% 30.24 in 10.0 mi NNE 3.5 mph - N/A   Clear
9:35 PM 19.4 °F 12.8 °F 17.6 °F 93% 30.23 in 10.0 mi NE 4.6 mph - N/A   Clear
9:55 PM 21.2 °F - 17.6 °F 86% 30.24 in 10.0 mi Calm Calm - N/A   Clear
10:15 PM 21.2 °F 14.9 °F 19.4 °F 93% 30.24 in 10.0 mi ENE 4.6 mph - N/A   Clear
10:35 PM 19.4 °F 11.5 °F 17.6 °F 93% 30.23 in 10.0 mi ENE 5.8 mph - N/A   Clear
10:55 PM 19.4 °F 14.3 °F 15.8 °F 86% 30.23 in 10.0 mi ENE 3.5 mph - N/A   Clear
11:15 PM 19.4 °F 14.3 °F 19.4 °F 100% 30.23 in 10.0 mi ENE 3.5 mph - N/A   Clear
11:35 PM 17.6 °F - 15.8 °F 93% 30.23 in 10.0 mi Calm Calm - N/A   Clear
11:55 PM 19.4 °F 14.3 °F 15.8 °F 86% 30.23 in 10.0 mi SE 3.5 mph - N/A   Clear